Time;durP1;ratioP1;P1;durP2;ratioP2;P2;SDS_P1;SDS_P2;PMS_P1;PMS_P2;Temp;Humidity;BMP_temperature;BMP_pressure;BME280_temperature;BME280_humidity;BME280_pressure;Samples;Min_cycle;Max_cycle;Signal;HPM_P1;HPM_P2
2022/01/07 00:01:36;;;;;;;3.90;3.60;;;;;;;8.78;59.76;94708.69;4952302;29;20190;-75
2022/01/07 00:04:03;;;;;;;4.00;3.60;;;;;;;8.73;59.67;94700.63;4935784;29;20191;-77
2022/01/07 00:06:30;;;;;;;3.30;3.10;;;;;;;8.78;59.54;94711.22;4952481;29;20566;-75
2022/01/07 00:08:57;;;;;;;3.43;3.13;;;;;;;8.74;59.74;94710.66;4935799;29;20226;-76
2022/01/07 00:11:26;;;;;;;3.83;3.47;;;;;;;8.42;59.41;94661.50;4952916;29;20194;-75
2022/01/07 00:13:53;;;;;;;5.07;3.63;;;;;;;8.77;59.51;94720.63;4952331;29;20674;-75
2022/01/07 00:16:20;;;;;;;3.73;3.43;;;;;;;8.73;59.35;94716.72;4935340;29;20202;-75
2022/01/07 00:18:47;;;;;;;3.60;3.30;;;;;;;8.68;59.34;94707.81;4952540;29;20712;-76
2022/01/07 00:21:15;;;;;;;3.37;3.07;;;;;;;8.75;59.48;94730.13;4952838;29;20194;-74
2022/01/07 00:23:42;;;;;;;3.30;3.00;;;;;;;8.64;59.34;94709.03;4952050;29;20205;-74
2022/01/07 00:26:09;;;;;;;3.77;2.93;;;;;;;8.77;59.39;94732.56;4935216;28;20669;-76
2022/01/07 00:28:37;;;;;;;3.30;3.00;;;;;;;8.70;59.27;94724.59;4952045;29;20323;-76
2022/01/07 00:31:04;;;;;;;3.13;2.93;;;;;;;8.75;59.17;94724.22;4952016;29;20202;-74
2022/01/07 00:33:31;;;;;;;3.17;2.97;;;;;;;8.75;59.20;94724.22;4952214;29;20198;-76
2022/01/07 00:35:59;;;;;;;3.30;3.00;;;;;;;8.71;59.12;94721.13;4952827;29;20195;-75
2022/01/07 00:38:27;;;;;;;3.43;3.13;;;;;;;8.73;59.26;94726.09;4952075;29;20234;-75
2022/01/07 00:40:55;;;;;;;3.20;2.90;;;;;;;8.71;59.32;94720.31;4952584;29;20369;-77
2022/01/07 00:43:23;;;;;;;3.73;3.43;;;;;;;8.65;59.25;94713.97;4952298;29;20199;-76
2022/01/07 00:45:52;;;;;;;3.67;2.97;;;;;;;8.67;59.33;94722.28;4951986;29;20202;-75
2022/01/07 00:48:20;;;;;;;3.30;3.10;;;;;;;8.65;59.24;94724.19;4955247;28;20222;-76
2022/01/07 00:50:47;;;;;;;3.47;3.20;;;;;;;8.70;59.37;94741.66;4964431;28;20194;-75
2022/01/07 00:53:15;;;;;;;3.27;2.97;;;;;;;8.68;59.03;94746.03;4977121;28;20193;-77
2022/01/07 00:55:42;;;;;;;4.00;3.10;;;;;;;8.58;59.18;94724.78;4980197;28;20197;-78
2022/01/07 00:58:11;;;;;;;3.33;3.03;;;;;;;8.69;59.23;94750.22;4982046;28;20189;-78
2022/01/07 01:00:39;;;;;;;3.50;3.20;;;;;;;8.62;59.26;94738.91;4962195;28;20194;-78
2022/01/07 01:03:08;;;;;;;3.27;3.03;;;;;;;8.70;59.27;94752.66;4980797;28;20201;-77
2022/01/07 01:05:36;;;;;;;3.60;3.30;;;;;;;8.70;59.37;94756.94;4979306;28;20591;-76
2022/01/07 01:08:03;;;;;;;3.70;3.33;;;;;;;8.69;59.25;94762.97;4980781;28;20295;-77
2022/01/07 01:10:30;;;;;;;4.07;3.70;;;;;;;8.69;59.26;94747.69;4981918;28;20186;-77
2022/01/07 01:12:57;;;;;;;3.93;3.53;;;;;;;8.68;59.27;94753.69;4977869;28;20201;-78
2022/01/07 01:15:27;;;;;;;3.53;3.23;;;;;;;8.62;59.08;94749.91;4981037;28;20204;-77
2022/01/07 01:17:57;;;;;;;3.43;3.13;;;;;;;8.67;59.17;94757.97;4981850;28;20557;-76
2022/01/07 01:20:27;;;;;;;3.50;3.20;;;;;;;8.60;58.96;94746.69;4980174;28;20190;-76
2022/01/07 01:22:56;;;;;;;3.33;3.13;;;;;;;8.67;59.08;94762.28;4945767;28;20224;-77
2022/01/07 01:25:24;;;;;;;3.33;2.90;;;;;;;8.48;59.25;94733.19;4963405;28;20194;-77
2022/01/07 01:27:52;;;;;;;3.10;2.90;;;;;;;8.67;59.03;94764.81;4982189;28;20182;-79
2022/01/07 01:30:21;;;;;;;3.37;3.13;;;;;;;8.65;58.94;94759.88;4976851;28;20338;-76
2022/01/07 01:32:53;;;;;;;3.57;3.27;;;;;;;8.62;59.22;94755.00;4979532;28;20197;-79
2022/01/07 01:35:21;;;;;;;3.43;2.87;;;;;;;8.64;59.16;94758.25;4976988;28;20257;-79
2022/01/07 01:37:50;;;;;;;3.20;2.93;;;;;;;8.64;59.06;94747.25;4980063;28;20208;-80
2022/01/07 01:40:20;;;;;;;3.13;2.93;;;;;;;8.62;58.99;94746.56;4979795;28;20711;-78
2022/01/07 01:42:51;;;;;;;4.30;2.90;;;;;;;8.59;59.16;94747.59;4984243;28;20188;-80
2022/01/07 01:45:19;;;;;;;2.80;2.60;;;;;;;8.63;58.93;94754.06;4963853;28;20189;-79
2022/01/07 01:47:46;;;;;;;2.90;2.70;;;;;;;8.55;59.15;94748.81;4983823;28;20196;-79
2022/01/07 01:50:14;;;;;;;3.17;2.97;;;;;;;8.60;58.94;94758.63;4986108;28;20220;-76
2022/01/07 01:52:45;;;;;;;3.40;3.10;;;;;;;8.54;58.93;94747.97;4983402;28;20193;-76
2022/01/07 01:55:18;;;;;;;3.33;3.03;;;;;;;8.56;58.98;94747.88;4965345;28;20265;-76
2022/01/07 01:57:48;;;;;;;3.40;3.10;;;;;;;8.56;59.08;94752.97;4983825;28;20192;-79
2022/01/07 02:00:16;;;;;;;3.20;3.00;;;;;;;8.53;59.04;94751.47;4983441;28;20185;-77
2022/01/07 02:02:43;;;;;;;3.23;2.93;;;;;;;8.48;58.98;94745.13;4983323;28;20186;-76
2022/01/07 02:05:11;;;;;;;3.00;2.80;;;;;;;8.53;59.17;94748.09;4983083;28;20568;-76
2022/01/07 02:07:40;;;;;;;3.30;3.00;;;;;;;8.53;59.12;94754.00;4980213;28;20194;-79
2022/01/07 02:10:11;;;;;;;2.93;2.73;;;;;;;8.52;59.05;94751.59;4983494;28;20311;-78
2022/01/07 02:12:40;;;;;;;3.10;2.90;;;;;;;8.50;58.90;94756.78;4979913;28;20184;-78
2022/01/07 02:15:09;;;;;;;3.33;2.90;;;;;;;8.41;59.12;94746.53;4965767;28;20198;-75
2022/01/07 02:17:36;;;;;;;3.33;3.03;;;;;;;8.49;59.01;94762.03;4983855;28;20201;-78
2022/01/07 02:20:07;;;;;;;3.03;2.83;;;;;;;8.49;58.80;94765.38;4948577;28;20182;-78
2022/01/07 02:22:34;;;;;;;3.50;3.20;;;;;;;8.36;59.27;94748.63;4981809;28;20604;-79
2022/01/07 02:25:01;;;;;;;3.23;2.97;;;;;;;8.49;59.09;94767.13;4966692;28;20197;-78
2022/01/07 02:27:32;;;;;;;3.20;2.90;;;;;;;8.41;59.29;94761.81;4980754;28;20194;-78
2022/01/07 02:30:00;;;;;;;3.17;2.87;;;;;;;8.48;59.16;94768.88;4973777;28;20229;-78
2022/01/07 02:32:27;;;;;;;3.07;2.83;;;;;;;8.37;59.17;94750.25;4956377;28;20197;-78
2022/01/07 02:34:54;;;;;;;3.17;2.97;;;;;;;8.44;59.22;94767.50;4974121;28;20194;-79
2022/01/07 02:37:22;;;;;;;3.20;2.90;;;;;;;8.44;59.11;94774.34;4973932;28;20200;-78
2022/01/07 02:39:49;;;;;;;3.20;2.90;;;;;;;8.42;59.16;94773.63;4973511;28;21044;-79
2022/01/07 02:42:16;;;;;;;3.27;2.80;;;;;;;8.43;59.24;94786.28;4973598;28;20221;-78
2022/01/07 02:44:43;;;;;;;3.67;2.80;;;;;;;8.44;59.12;94785.34;4973549;28;20679;-79
2022/01/07 02:47:10;;;;;;;3.50;3.20;;;;;;;8.43;59.44;94782.91;4973425;28;20190;-79
2022/01/07 02:49:37;;;;;;;3.40;3.10;;;;;;;8.37;59.08;94776.53;4973268;28;20229;-79
2022/01/07 02:52:05;;;;;;;3.50;2.73;;;;;;;8.15;59.07;94749.38;4974004;28;20193;-80
2022/01/07 02:54:34;;;;;;;3.20;3.00;;;;;;;8.29;59.29;94769.50;4956454;28;20202;-75
2022/01/07 02:57:02;;;;;;;4.50;3.20;;;;;;;8.43;59.19;94793.91;4974218;28;20682;-79
2022/01/07 02:59:29;;;;;;;3.53;3.23;;;;;;;8.38;59.05;94782.47;4974089;28;20198;-79
2022/01/07 03:01:55;;;;;;;4.27;3.23;;;;;;;8.42;59.04;94791.47;4958471;28;20224;-78
2022/01/07 03:04:23;;;;;;;3.33;2.87;;;;;;;8.42;59.13;94781.28;4975902;28;20220;-79
2022/01/07 03:06:51;;;;;;;3.50;3.20;;;;;;;8.30;59.08;94768.56;4975132;28;20257;-79
2022/01/07 03:09:18;;;;;;;3.30;3.00;;;;;;;8.41;59.14;94780.47;4973689;28;20217;-79
2022/01/07 03:11:47;;;;;;;3.33;3.03;;;;;;;8.42;59.08;94778.72;4973017;28;20205;-79
2022/01/07 03:14:15;;;;;;;3.57;3.27;;;;;;;8.37;58.99;94779.09;4973072;28;20601;-75
2022/01/07 03:16:43;;;;;;;5.00;3.10;;;;;;;8.38;59.18;94783.28;4973261;28;20284;-79
2022/01/07 03:19:10;;;;;;;3.27;2.90;;;;;;;8.37;58.99;94793.56;4972874;28;20277;-78
2022/01/07 03:21:37;;;;;;;3.83;3.43;;;;;;;8.36;59.52;94791.94;4955594;28;20267;-80
2022/01/07 03:24:05;;;;;;;4.07;3.53;;;;;;;8.36;59.10;94792.75;4972798;28;20665;-77
2022/01/07 03:26:32;;;;;;;3.67;3.37;;;;;;;8.35;59.27;94788.59;4955845;28;20194;-78
2022/01/07 03:29:03;;;;;;;3.90;3.50;;;;;;;8.34;59.09;94797.16;4972311;28;20312;-77
2022/01/07 03:31:30;;;;;;;3.27;3.00;;;;;;;8.35;59.15;94800.53;4972778;28;20204;-76
2022/01/07 03:33:57;;;;;;;4.93;4.43;;;;;;;8.34;59.19;94796.34;4973538;28;20190;-76
2022/01/07 03:36:24;;;;;;;3.97;3.67;;;;;;;8.28;59.25;94782.34;4973088;28;20202;-77
2022/01/07 03:38:51;;;;;;;4.43;4.03;;;;;;;8.33;59.08;94792.16;4955520;28;20253;-77
2022/01/07 03:41:19;;;;;;;4.70;4.30;;;;;;;8.34;59.43;94798.91;4972737;28;20217;-76
2022/01/07 03:43:46;;;;;;;4.90;4.37;;;;;;;8.32;59.29;94801.56;4972491;28;20286;-79
2022/01/07 03:46:14;;;;;;;5.57;4.93;;;;;;;8.30;59.29;94806.78;4954985;28;20518;-76
2022/01/07 03:48:42;;;;;;;4.90;4.40;;;;;;;8.33;59.20;94808.25;4972343;28;20218;-78
2022/01/07 03:51:08;;;;;;;5.53;4.20;;;;;;;8.32;59.32;94808.41;4972876;28;20614;-79
2022/01/07 03:53:36;;;;;;;6.77;4.57;;;;;;;8.32;59.33;94813.50;4974118;28;20198;-78
2022/01/07 03:56:04;;;;;;;6.40;4.90;;;;;;;8.32;59.20;94810.94;4954880;28;20574;-77
2022/01/07 03:58:31;;;;;;;5.47;4.70;;;;;;;8.30;59.24;94813.63;4939004;28;20194;-75
2022/01/07 04:00:58;;;;;;;5.13;4.60;;;;;;;8.30;59.36;94809.34;4971483;28;20194;-75
2022/01/07 04:03:26;;;;;;;5.10;4.30;;;;;;;8.31;59.25;94815.25;4954719;28;20194;-74
2022/01/07 04:05:54;;;;;;;5.57;5.00;;;;;;;8.29;59.20;94815.38;4972079;28;20194;-75
2022/01/07 04:08:22;;;;;;;6.10;4.63;;;;;;;8.30;59.34;94818.72;4972522;28;20547;-76
2022/01/07 04:10:49;;;;;;;6.77;4.50;;;;;;;8.32;59.24;94823.69;4971860;28;20300;-76
2022/01/07 04:13:17;;;;;;;5.17;4.50;;;;;;;8.33;59.25;94822.75;4972335;28;20205;-77
2022/01/07 04:15:44;;;;;;;5.47;4.63;;;;;;;8.32;58.91;94824.50;4971999;28;20221;-78
2022/01/07 04:18:13;;;;;;;5.57;4.83;;;;;;;8.31;59.16;94822.88;4971542;28;20201;-76
2022/01/07 04:20:42;;;;;;;4.97;4.40;;;;;;;8.33;59.25;94830.38;4972254;28;20629;-76
2022/01/07 04:23:10;;;;;;;4.30;3.90;;;;;;;8.16;58.99;94803.69;4955101;28;20196;-74
2022/01/07 04:25:37;;;;;;;4.00;3.70;;;;;;;8.36;59.19;94840.34;4972212;28;20197;-76
2022/01/07 04:28:07;;;;;;;4.43;4.03;;;;;;;8.35;59.16;94837.00;4972403;28;20858;-75
2022/01/07 04:30:36;;;;;;;5.00;4.17;;;;;;;8.20;58.99;94816.09;4971945;28;20701;-74
2022/01/07 04:33:04;;;;;;;4.57;4.17;;;;;;;8.37;59.10;94855.53;4971594;28;20676;-75
2022/01/07 04:35:34;;;;;;;4.90;4.37;;;;;;;8.35;58.91;94843.84;4971929;28;20353;-76
2022/01/07 04:38:04;;;;;;;4.13;3.73;;;;;;;8.36;59.21;94840.34;4971495;28;20202;-77
2022/01/07 04:40:31;;;;;;;4.67;4.17;;;;;;;8.35;59.17;94851.47;4971532;28;20639;-76
2022/01/07 04:43:00;;;;;;;4.53;4.07;;;;;;;8.36;59.20;94851.34;4973084;28;20196;-76
2022/01/07 04:45:28;;;;;;;5.53;4.60;;;;;;;8.37;59.09;94850.44;4956340;28;20736;-76
2022/01/07 04:47:56;;;;;;;3.60;3.30;;;;;;;8.15;59.16;94825.00;4954941;28;20194;-75
2022/01/07 04:50:23;;;;;;;4.73;4.30;;;;;;;8.37;59.28;94860.63;4971998;28;20214;-75
2022/01/07 04:52:51;;;;;;;6.23;4.40;;;;;;;8.37;59.26;94852.19;4971454;28;20201;-76
2022/01/07 04:55:24;;;;;;;6.37;4.20;;;;;;;8.35;59.23;94847.19;4971544;28;20607;-76
2022/01/07 04:57:51;;;;;;;7.17;4.50;;;;;;;8.38;59.18;94856.38;4971320;28;20200;-76
2022/01/07 05:00:21;;;;;;;4.33;4.00;;;;;;;8.34;59.65;94855.78;4954412;28;20189;-78
2022/01/07 05:02:47;;;;;;;4.80;4.30;;;;;;;8.35;59.30;94859.13;4971170;28;20201;-76
2022/01/07 05:05:14;;;;;;;4.23;3.83;;;;;;;8.35;59.44;94857.38;4971572;28;20572;-79
2022/01/07 05:07:41;;;;;;;6.23;4.83;;;;;;;8.34;59.37;94868.50;4970716;28;20209;-77
2022/01/07 05:10:11;;;;;;;5.03;4.40;;;;;;;8.19;59.45;94847.56;4971214;28;20225;-79
2022/01/07 05:12:42;;;;;;;4.63;4.10;;;;;;;8.34;59.37;94871.06;4971461;28;20198;-77
2022/01/07 05:15:11;;;;;;;5.27;4.77;;;;;;;8.33;59.75;94868.59;4975546;28;20193;-76
2022/01/07 05:17:38;;;;;;;4.63;4.23;;;;;;;8.33;59.53;94871.16;4974983;28;20189;-76
2022/01/07 05:20:08;;;;;;;5.13;4.63;;;;;;;7.96;59.54;94816.25;4975621;28;20885;-77
2022/01/07 05:22:36;;;;;;;5.10;4.60;;;;;;;8.32;59.50;94878.00;4954638;28;20201;-78
2022/01/07 05:25:05;;;;;;;5.00;4.50;;;;;;;8.32;59.61;94867.00;4957884;28;20197;-79
2022/01/07 05:27:32;;;;;;;4.97;4.23;;;;;;;8.29;59.55;94870.59;4978288;28;20194;-79
2022/01/07 05:30:01;;;;;;;5.53;4.83;;;;;;;8.30;59.74;94873.03;4957724;28;20214;-79
2022/01/07 05:32:29;;;;;;;5.80;5.17;;;;;;;8.24;59.65;94865.84;4974801;28;20205;-77
2022/01/07 05:34:58;;;;;;;6.90;5.10;;;;;;;8.29;59.63;94876.50;4974165;28;20197;-75
2022/01/07 05:37:26;;;;;;;5.07;4.50;;;;;;;8.27;59.62;94870.72;4942310;28;20201;-74
2022/01/07 05:39:55;;;;;;;5.30;4.77;;;;;;;8.16;59.58;94862.28;4974331;28;20262;-76
2022/01/07 05:42:23;;;;;;;7.07;5.40;;;;;;;8.14;59.78;94856.50;4974684;28;20198;-74
2022/01/07 05:44:50;;;;;;;7.13;5.70;;;;;;;8.04;59.71;94843.69;4974508;28;20569;-76
2022/01/07 05:47:26;;;;;;;5.63;4.70;;;;;;;8.27;59.84;94880.09;4973345;28;20194;-76
2022/01/07 05:49:53;;;;;;;5.07;4.57;;;;;;;8.25;59.73;94882.78;4952664;29;20236;-75
2022/01/07 05:52:21;;;;;;;5.53;5.03;;;;;;;8.27;59.89;94883.44;4952829;29;20225;-78
2022/01/07 05:54:50;;;;;;;8.03;6.00;;;;;;;8.27;59.95;94886.00;4935919;29;20779;-81
2022/01/07 05:57:25;;;;;;;6.70;5.63;;;;;;;8.25;59.88;94885.31;4953842;29;20270;-78
2022/01/07 05:59:58;;;;;;;5.90;5.33;;;;;;;8.25;59.98;94890.41;4934937;29;20194;-76
2022/01/07 06:02:30;;;;;;;7.53;5.70;;;;;;;8.25;60.00;94895.50;4952932;29;20202;-80
2022/01/07 06:07:44;;;;;;;5.33;4.83;;;;;;;8.25;60.11;94897.25;4952399;29;20253;-77
2022/01/07 06:10:12;;;;;;;6.00;5.30;;;;;;;8.25;60.09;94885.31;4935254;29;20771;-75
2022/01/07 06:12:39;;;;;;;7.67;5.47;;;;;;;8.26;60.03;94899.66;4952469;29;20664;-77
2022/01/07 06:15:08;;;;;;;7.93;5.57;;;;;;;8.26;60.03;94889.47;4934769;29;20289;-79
2022/01/07 06:17:37;;;;;;;6.00;5.40;;;;;;;8.28;59.96;94894.44;4952789;29;20186;-76
2022/01/07 06:20:09;;;;;;;6.23;5.13;;;;;;;8.29;59.93;94891.81;4951979;29;20198;-80
2022/01/07 06:22:44;;;;;;;6.30;4.90;;;;;;;8.17;59.92;94871.56;4952546;29;20190;-83
2022/01/07 06:25:11;;;;;;;5.37;4.87;;;;;;;8.23;59.90;94878.72;4951516;28;20220;-77
2022/01/07 06:27:39;;;;;;;6.33;5.43;;;;;;;8.30;59.82;94898.50;4970500;28;20947;-77
2022/01/07 06:30:08;;;;;;;5.47;4.73;;;;;;;8.25;59.84;94890.41;4962973;28;20846;-77
2022/01/07 06:32:37;;;;;;;6.80;5.50;;;;;;;8.24;59.87;94893.88;4970128;28;20588;-77
2022/01/07 06:35:04;;;;;;;7.17;5.57;;;;;;;8.19;59.93;94885.78;4960960;28;20190;-75
2022/01/07 06:37:32;;;;;;;7.57;5.63;;;;;;;8.38;59.72;94915.78;4966918;28;20205;-76
2022/01/07 06:39:58;;;;;;;9.33;5.47;;;;;;;8.42;59.60;94909.53;4962865;28;20726;-76
2022/01/07 06:42:25;;;;;;;5.97;5.37;;;;;;;8.47;59.49;94912.53;4969158;28;20204;-75
2022/01/07 06:44:52;;;;;;;6.10;5.47;;;;;;;8.50;59.59;94917.34;5204161;23;20302;-75
2022/01/07 06:47:19;;;;;;;7.47;5.43;;;;;;;8.38;59.56;94899.69;4950119;28;20585;-76
2022/01/07 06:49:47;;;;;;;6.90;5.97;;;;;;;8.57;59.44;94927.91;4950952;28;20233;-76
2022/01/07 06:52:14;;;;;;;6.50;5.50;;;;;;;8.62;59.51;94930.09;4948377;28;20194;-75
2022/01/07 06:58:03;;;;;;;5.87;5.27;;;;;;;8.66;59.07;94926.38;4978358;28;20231;-75
2022/01/07 07:00:30;;;;;;;6.07;5.47;;;;;;;8.63;58.99;94909.56;4989511;28;20599;-76
2022/01/07 07:02:58;;;;;;;7.57;6.30;;;;;;;8.77;59.09;94928.91;4989643;28;20197;-78
2022/01/07 07:05:26;;;;;;;8.13;6.40;;;;;;;8.81;59.17;94930.28;4989229;28;20691;-76
2022/01/07 07:07:53;;;;;;;7.03;5.90;;;;;;;8.87;59.00;94931.53;4989527;28;20648;-74
2022/01/07 07:10:20;;;;;;;7.63;6.20;;;;;;;8.91;58.97;94933.72;4971797;28;20240;-76
2022/01/07 07:12:48;;;;;;;9.53;6.63;;;;;;;8.89;58.72;94920.25;4972475;28;20192;-76
2022/01/07 07:15:15;;;;;;;6.43;5.50;;;;;;;9.01;58.60;94924.38;4989148;28;20696;-75
2022/01/07 07:17:45;;;;;;;6.57;5.80;;;;;;;9.05;58.74;94922.41;4989488;28;20192;-74
2022/01/07 07:20:13;;;;;;;7.13;6.43;;;;;;;8.96;58.40;94897.63;4955826;28;20279;-76
2022/01/07 07:22:42;;;;;;;9.70;6.47;;;;;;;9.10;58.51;94909.28;4989447;28;20251;-76
2022/01/07 07:25:10;;;;;;;11.83;6.13;;;;;;;9.19;58.38;94923.84;4989154;28;20621;-76
2022/01/07 07:27:37;;;;;;;6.77;6.17;;;;;;;9.15;58.07;94897.75;4988963;28;20655;-76
2022/01/07 07:30:06;;;;;;;8.53;6.83;;;;;;;9.43;57.79;94919.31;4989114;28;20216;-78
2022/01/07 07:32:35;;;;;;;7.13;6.43;;;;;;;9.57;57.76;94922.47;4971968;28;20205;-76
2022/01/07 07:36:26;;;;;;;9.57;6.20;;;;;;;9.62;57.79;94912.69;4988512;28;20200;-77
2022/01/07 07:37:52;;;;;;;9.70;6.40;;;;;;;9.68;57.53;94910.47;4973919;28;20192;-76
2022/01/07 07:40:19;;;;;;;7.33;6.53;;;;;;;9.75;57.37;94898.78;4971124;28;20203;-77
2022/01/07 07:42:47;;;;;;;10.03;6.27;;;;;;;10.00;57.20;94920.53;4989282;28;20197;-79
2022/01/07 07:45:16;;;;;;;9.70;6.67;;;;;;;10.10;57.23;94925.69;4988757;28;20267;-79
2022/01/07 07:47:48;;;;;;;7.47;6.33;;;;;;;9.92;56.75;94871.03;4989057;28;20300;-81
2022/01/07 07:50:20;;;;;;;7.27;6.27;;;;;;;10.22;56.66;94908.50;4988434;28;20607;-81
2022/01/07 07:53:05;;;;;;;9.20;6.73;;;;;;;10.41;56.28;94921.38;4909593;29;20203;-76
2022/01/07 07:55:33;;;;;;;9.27;6.67;;;;;;;10.40;56.21;94914.63;4908904;29;20640;-78
2022/01/07 07:58:03;;;;;;;7.33;5.80;;;;;;;10.46;55.99;94915.88;4909228;29;20245;-77
2022/01/07 08:03:06;;;;;;;7.50;6.50;;;;;;;10.52;55.67;94915.34;5065271;23;20240;-77
2022/01/07 08:05:34;;;;;;;6.67;6.07;;;;;;;10.64;55.58;94928.84;4988107;28;20208;-79
2022/01/07 08:08:02;;;;;;;8.03;6.53;;;;;;;10.62;55.44;94917.91;4970707;28;20213;-76
2022/01/07 08:10:30;;;;;;;6.63;5.90;;;;;;;10.71;55.27;94928.19;4988311;28;20236;-72
2022/01/07 08:13:26;;;;;;;10.60;7.37;;;;;;;10.76;55.10;94926.03;4988057;28;20233;-74
2022/01/07 08:15:59;;;;;;;7.10;6.37;;;;;;;11.12;78.98;94926.31;4987942;28;20692;-74
2022/01/07 08:21:11;;;;;;;7.07;6.20;;;;;;;11.47;67.14;94928.28;4987281;28;20264;-76
2022/01/07 08:23:42;;;;;;;12.73;5.97;;;;;;;11.50;64.82;94930.59;4988305;28;20197;-78
2022/01/07 08:26:11;;;;;;;7.37;6.67;;;;;;;11.52;63.23;94928.69;4970504;28;20208;-77
2022/01/07 08:28:44;;;;;;;6.87;6.17;;;;;;;11.53;61.91;94927.75;4987199;28;20651;-76
2022/01/07 08:36:54;;;;;;;9.97;6.60;;;;;;;11.58;58.73;94919.66;4985490;28;20259;-77
2022/01/07 08:39:25;;;;;;;8.10;6.60;;;;;;;11.63;57.93;94920.03;4985259;28;20252;-77
2022/01/07 08:41:52;;;;;;;8.90;6.33;;;;;;;11.50;57.49;94897.28;4969751;28;20597;-81
2022/01/07 08:44:21;;;;;;;9.27;7.10;;;;;;;11.65;57.00;94902.78;4970662;28;20201;-78
2022/01/07 08:46:49;;;;;;;8.07;6.73;;;;;;;11.81;56.01;94920.13;4986340;28;20592;-77
2022/01/07 08:49:16;;;;;;;6.63;5.90;;;;;;;11.82;55.58;94903.81;4990199;28;20193;-76
2022/01/07 08:51:43;;;;;;;7.40;6.67;;;;;;;11.96;55.19;94910.25;4972476;28;20599;-75
2022/01/07 08:54:10;;;;;;;6.77;5.80;;;;;;;11.98;55.07;94911.75;4990192;28;20193;-75
2022/01/07 08:56:38;;;;;;;8.33;6.40;;;;;;;11.87;54.83;94886.28;4972342;28;20197;-75
2022/01/07 08:59:05;;;;;;;8.23;6.23;;;;;;;12.01;54.46;94902.97;4990115;28;20664;-76
2022/01/07 09:01:33;;;;;;;7.77;6.30;;;;;;;11.93;54.41;94890.84;4989658;28;20193;-77
2022/01/07 09:03:59;;;;;;;7.27;6.13;;;;;;;11.99;54.25;94897.97;4989695;28;20667;-78
2022/01/07 09:06:26;;;;;;;9.07;6.47;;;;;;;11.97;53.87;94897.31;4989847;28;20687;-75
2022/01/07 09:08:54;;;;;;;7.50;6.63;;;;;;;11.89;53.93;94889.53;4989720;28;20578;-75
2022/01/07 09:11:21;;;;;;;8.70;7.03;;;;;;;11.93;53.96;94887.50;4989504;28;20299;-79
2022/01/07 09:13:52;;;;;;;7.40;6.50;;;;;;;11.88;53.45;94882.00;4955141;28;20212;-77
2022/01/07 09:16:19;;;;;;;9.40;6.83;;;;;;;11.92;53.49;94891.81;4989552;28;20228;-74
2022/01/07 09:18:49;;;;;;;7.30;6.37;;;;;;;11.92;53.31;94885.88;4989292;28;20208;-78
2022/01/07 09:21:29;;;;;;;9.10;6.40;;;;;;;11.91;53.45;94881.69;4989714;28;20568;-80
2022/01/07 09:23:56;;;;;;;7.87;6.50;;;;;;;11.91;53.27;94881.69;4968392;28;20204;-76
2022/01/07 09:26:24;;;;;;;9.17;6.77;;;;;;;11.91;53.33;94884.25;4989240;28;20205;-75
2022/01/07 09:28:52;;;;;;;8.63;7.60;;;;;;;11.89;53.07;94878.47;4965832;28;20629;-75
2022/01/07 09:31:19;;;;;;;8.27;6.50;;;;;;;11.87;53.00;94880.34;4986433;28;20227;-77
2022/01/07 09:33:47;;;;;;;9.03;6.57;;;;;;;11.78;52.96;94857.16;4987392;28;20224;-74
2022/01/07 09:36:18;;;;;;;8.63;7.20;;;;;;;11.81;53.14;94871.44;4987294;28;20197;-78
2022/01/07 09:38:45;;;;;;;8.30;7.00;;;;;;;11.80;52.83;94864.72;4987908;28;20193;-75
2022/01/07 09:41:12;;;;;;;7.90;7.10;;;;;;;11.83;53.05;94866.19;4988989;28;20284;-76
2022/01/07 09:43:43;;;;;;;10.33;7.43;;;;;;;11.82;52.91;94867.94;4988688;28;20224;-77
2022/01/07 09:46:15;;;;;;;16.07;7.37;;;;;;;11.66;52.93;94835.25;4987323;28;20205;-73
2022/01/07 09:48:44;;;;;;;12.70;7.77;;;;;;;11.88;52.94;94864.03;4965691;28;20205;-77
2022/01/07 09:51:14;;;;;;;9.00;6.70;;;;;;;11.90;52.86;94857.81;4972025;28;20248;-75
2022/01/07 09:53:44;;;;;;;10.37;7.23;;;;;;;11.96;52.71;94861.56;4989050;28;20293;-78
2022/01/07 09:56:12;;;;;;;9.33;7.47;;;;;;;11.94;52.60;94842.97;4989281;28;20196;-76
2022/01/07 09:58:39;;;;;;;9.40;6.87;;;;;;;11.85;52.39;94823.31;4989153;28;20319;-76
2022/01/07 10:01:09;;;;;;;8.43;7.00;;;;;;;12.12;52.31;94856.63;4992597;28;20205;-76
2022/01/07 10:03:41;;;;;;;11.20;7.73;;;;;;;12.12;52.21;94843.00;4991030;28;20224;-75
2022/01/07 10:06:20;;;;;;;9.03;7.57;;;;;;;12.22;52.29;94847.16;4987951;28;20200;-75
2022/01/07 10:08:59;;;;;;;8.67;7.63;;;;;;;12.28;51.95;94854.25;4989974;28;20197;-76
2022/01/07 10:11:26;;;;;;;9.17;7.40;;;;;;;12.19;52.15;94824.34;4988925;28;20727;-78
2022/01/07 10:14:15;;;;;;;8.20;7.10;;;;;;;12.39;51.77;94847.28;4990471;28;20652;-75
2022/01/07 10:16:49;;;;;;;9.87;7.67;;;;;;;12.42;51.81;94842.69;4990510;28;20663;-76
2022/01/07 10:19:35;;;;;;;9.77;7.57;;;;;;;12.23;51.80;94810.28;4990043;28;20197;-76
2022/01/07 10:22:04;;;;;;;10.13;7.83;;;;;;;12.42;51.69;94841.88;4988784;28;20205;-76
2022/01/07 10:24:32;;;;;;;8.93;7.33;;;;;;;12.49;51.81;94850.63;4990575;28;20203;-76
2022/01/07 10:27:15;;;;;;;8.40;7.03;;;;;;;12.38;51.44;94818.28;4989906;28;20208;-77
2022/01/07 10:29:44;;;;;;;9.13;7.67;;;;;;;12.46;51.51;94818.38;4991932;28;20694;-78
2022/01/07 10:32:25;;;;;;;7.73;6.77;;;;;;;12.53;51.50;94818.59;4992125;28;20217;-78
2022/01/07 10:35:10;;;;;;;7.10;6.40;;;;;;;12.44;51.32;94799.75;4992415;28;20189;-76
2022/01/07 10:37:46;;;;;;;9.10;7.07;;;;;;;12.62;51.10;94822.03;4971848;28;20208;-77
2022/01/07 10:40:28;;;;;;;9.40;6.53;;;;;;;12.65;51.02;94812.31;4990224;28;20664;-75
2022/01/07 10:42:56;;;;;;;7.90;7.07;;;;;;;12.68;51.07;94811.97;4991254;28;20205;-77
2022/01/07 10:45:24;;;;;;;9.20;6.50;;;;;;;12.62;50.80;94799.75;4992070;28;20197;-76
2022/01/07 10:47:54;;;;;;;7.20;6.13;;;;;;;12.69;50.72;94805.88;4990652;28;20212;-77
2022/01/07 10:50:24;;;;;;;9.70;6.63;;;;;;;12.66;50.74;94795.94;4989493;28;20204;-76
2022/01/07 10:52:53;;;;;;;8.83;6.40;;;;;;;12.74;50.28;94796.00;4973282;28;20217;-76
2022/01/07 10:55:22;;;;;;;7.63;6.37;;;;;;;12.84;50.13;94805.38;4973399;28;20288;-77
2022/01/07 10:57:51;;;;;;;8.13;6.30;;;;;;;12.85;50.24;94807.78;4991676;28;20563;-77
2022/01/07 11:00:24;;;;;;;7.27;5.70;;;;;;;12.87;50.21;94807.66;4991497;28;20208;-78
2022/01/07 11:02:51;;;;;;;10.00;6.70;;;;;;;12.74;49.91;94784.94;4968343;28;20275;-76
2022/01/07 11:05:18;;;;;;;12.70;7.03;;;;;;;12.57;49.85;94755.78;4991160;28;20587;-76
2022/01/07 11:07:47;;;;;;;8.10;6.17;;;;;;;12.89;49.89;94798.84;4990932;28;20236;-77
2022/01/07 11:10:13;;;;;;;9.37;6.53;;;;;;;12.78;49.70;94784.50;4991218;28;20288;-76
2022/01/07 11:12:41;;;;;;;7.97;6.17;;;;;;;12.93;49.60;94797.59;4991507;28;20231;-78
2022/01/07 11:15:10;;;;;;;12.00;7.07;;;;;;;12.93;49.84;94796.78;4991354;28;20202;-75
2022/01/07 11:17:37;;;;;;;9.13;7.33;;;;;;;12.94;49.60;94790.69;4990198;28;20211;-76
2022/01/07 11:20:07;;;;;;;9.87;7.17;;;;;;;12.92;49.52;94788.28;4989976;28;20696;-75
2022/01/07 11:22:38;;;;;;;7.03;6.07;;;;;;;12.83;49.47;94771.22;4991040;28;20243;-75
2022/01/07 11:25:10;;;;;;;10.87;7.03;;;;;;;12.93;49.34;94784.75;4989085;28;20263;-76
2022/01/07 11:27:51;;;;;;;7.83;6.73;;;;;;;12.90;49.18;94777.34;4991241;28;20189;-77
2022/01/07 11:30:19;;;;;;;9.00;6.60;;;;;;;12.90;49.33;94790.19;4988219;28;20196;-75
2022/01/07 11:32:47;;;;;;;8.90;6.67;;;;;;;12.92;49.18;94787.50;4991460;28;20225;-77
2022/01/07 11:35:45;;;;;;;13.70;6.80;;;;;;;12.92;49.09;94780.59;4988682;28;20204;-75
2022/01/07 11:38:37;;;;;;;11.40;6.73;;;;;;;12.76;49.12;94755.59;4990948;28;20197;-75
2022/01/07 11:41:11;;;;;;;7.87;6.23;;;;;;;12.90;49.00;94774.78;4991094;28;20645;-75
2022/01/07 11:43:49;;;;;;;8.07;6.80;;;;;;;12.88;49.00;94763.06;4990687;28;20267;-75
2022/01/07 11:46:31;;;;;;;9.00;7.20;;;;;;;12.75;48.97;94748.88;4989503;28;20251;-75
2022/01/07 11:49:01;;;;;;;8.13;6.80;;;;;;;12.82;49.04;94767.03;4990665;28;20197;-77
2022/01/07 11:51:44;;;;;;;8.10;6.53;;;;;;;12.71;48.80;94751.88;4990622;28;20222;-76
2022/01/07 11:54:13;;;;;;;10.30;7.53;;;;;;;12.71;49.16;94764.72;4987731;28;20385;-76
2022/01/07 11:56:43;;;;;;;7.67;5.93;;;;;;;12.59;48.84;94753.88;4988298;28;20197;-76
2022/01/07 11:59:16;;;;;;;10.27;6.43;;;;;;;12.68;48.72;94768.38;4991025;28;20276;-76
2022/01/07 12:01:43;;;;;;;10.10;7.50;;;;;;;12.52;48.83;94742.56;4967360;28;20224;-75
2022/01/07 12:04:27;;;;;;;8.27;7.23;;;;;;;12.60;48.73;94757.22;4990093;28;20243;-76
2022/01/07 12:06:55;;;;;;;10.57;7.47;;;;;;;12.51;48.90;94746.09;4988770;28;20208;-76